createdAt,value
2018-12-24T00:00:23.474Z,5.80
2018-12-24T00:01:23.468Z,5.80
2018-12-24T00:02:23.489Z,5.50
2018-12-24T00:03:23.492Z,5.90
2018-12-24T00:04:23.488Z,5.80
2018-12-24T00:05:23.517Z,5.40
2018-12-24T00:06:23.509Z,5.80
2018-12-24T00:07:23.525Z,5.90
2018-12-24T00:08:23.558Z,5.50
2018-12-24T00:09:23.565Z,6.10
2018-12-24T00:10:23.515Z,5.90
2018-12-24T00:11:23.534Z,5.30
2018-12-24T00:12:23.535Z,5.20
2018-12-24T00:13:23.546Z,5.00
2018-12-24T00:14:23.589Z,5.20
2018-12-24T00:15:23.559Z,5.70
2018-12-24T00:16:23.548Z,5.20
2018-12-24T00:17:23.559Z,5.70
2018-12-24T00:18:23.579Z,5.70
2018-12-24T00:19:23.565Z,5.60
2018-12-24T00:20:23.583Z,5.30
2018-12-24T00:21:23.579Z,5.20
2018-12-24T00:22:23.608Z,5.50
2018-12-24T00:23:23.592Z,5.30
2018-12-24T00:24:23.587Z,5.50
2018-12-24T00:25:23.592Z,5.20
2018-12-24T00:26:23.647Z,4.90
2018-12-24T00:27:23.596Z,4.80
2018-12-24T00:28:23.600Z,4.60
2018-12-24T00:29:23.652Z,4.20
2018-12-24T00:30:23.606Z,4.00
2018-12-24T00:31:23.642Z,4.00
2018-12-24T00:32:23.634Z,4.00
2018-12-24T00:33:23.632Z,3.70
2018-12-24T00:34:23.631Z,3.80
2018-12-24T00:35:23.639Z,3.60
2018-12-24T00:36:23.640Z,4.00
2018-12-24T00:37:23.657Z,3.70
2018-12-24T00:38:23.639Z,3.90
2018-12-24T00:39:23.654Z,4.40
2018-12-24T00:40:23.671Z,4.50
2018-12-24T00:41:23.657Z,5.20
2018-12-24T00:42:23.682Z,5.30
2018-12-24T00:43:23.666Z,6.10
2018-12-24T00:44:23.689Z,6.80
2018-12-24T00:45:23.675Z,6.70
2018-12-24T00:46:23.691Z,7.10
2018-12-24T00:47:23.689Z,8.40
2018-12-24T00:48:23.715Z,8.40
2018-12-24T00:49:24.153Z,7.90
2018-12-24T00:50:24.625Z,8.20
2018-12-24T00:51:23.708Z,8.40
2018-12-24T00:52:23.728Z,8.80
2018-12-24T00:53:23.710Z,9.60
2018-12-24T00:54:23.740Z,9.80
2018-12-24T00:55:23.751Z,9.60
2018-12-24T00:56:23.744Z,9.20
2018-12-24T00:57:23.727Z,9.30
2018-12-24T00:58:23.721Z,9.60
2018-12-24T00:59:23.739Z,9.40
2018-12-24T01:00:23.733Z,9.30
2018-12-24T01:01:23.771Z,9.10
2018-12-24T01:02:23.735Z,9.00
2018-12-24T01:03:23.742Z,9.30
2018-12-24T01:04:23.752Z,8.70
2018-12-24T01:05:23.785Z,8.00
2018-12-24T01:06:23.758Z,8.10
2018-12-24T01:07:23.786Z,7.80
2018-12-24T01:08:23.770Z,8.20
2018-12-24T01:09:23.769Z,7.80
2018-12-24T01:10:23.833Z,8.00
2018-12-24T01:11:23.771Z,7.20
2018-12-24T01:12:24.743Z,7.20
2018-12-24T01:13:23.800Z,7.40
2018-12-24T01:14:23.798Z,7.40
2018-12-24T01:15:23.822Z,8.30
2018-12-24T01:16:23.803Z,8.30
2018-12-24T01:17:23.796Z,7.60
2018-12-24T01:18:23.806Z,7.20
2018-12-24T01:19:23.807Z,7.30
2018-12-24T01:20:23.807Z,7.60
2018-12-24T01:21:23.836Z,7.90
2018-12-24T01:22:23.843Z,7.90
2018-12-24T01:23:23.818Z,8.40
2018-12-24T01:24:23.833Z,7.80
2018-12-24T01:25:23.842Z,8.00
2018-12-24T01:26:23.828Z,7.90
2018-12-24T01:27:23.870Z,8.60
2018-12-24T01:28:23.844Z,8.10
2018-12-24T01:29:23.839Z,7.60
2018-12-24T01:30:23.843Z,7.70
2018-12-24T01:31:23.884Z,8.50
2018-12-24T01:32:23.869Z,7.40
2018-12-24T01:33:23.849Z,7.40
2018-12-24T01:34:23.853Z,7.70
2018-12-24T01:35:23.857Z,8.10
2018-12-24T01:36:23.909Z,7.60
2018-12-24T01:37:23.880Z,7.70
2018-12-24T01:38:23.938Z,7.80
2018-12-24T01:39:23.886Z,8.00
2018-12-24T01:40:23.891Z,8.10
2018-12-24T01:41:23.885Z,7.60
2018-12-24T01:42:23.911Z,7.60
2018-12-24T01:43:23.901Z,7.60
2018-12-24T01:44:23.928Z,7.60
2018-12-24T01:45:23.921Z,7.00
2018-12-24T01:46:23.910Z,7.30
2018-12-24T01:47:23.912Z,7.10
2018-12-24T01:48:23.914Z,7.10
2018-12-24T01:49:23.935Z,7.30
2018-12-24T01:50:23.917Z,7.20
2018-12-24T01:51:23.930Z,7.00
2018-12-24T01:52:23.951Z,6.50
2018-12-24T01:53:23.939Z,6.70
2018-12-24T01:54:23.990Z,7.10
2018-12-24T01:55:23.940Z,6.70
2018-12-24T01:56:23.950Z,6.80
2018-12-24T01:57:23.957Z,7.00
2018-12-24T01:58:23.961Z,6.80
2018-12-24T01:59:23.967Z,7.10
2018-12-24T02:00:23.978Z,7.30
2018-12-24T02:01:23.969Z,7.00
2018-12-24T02:02:23.987Z,7.40
2018-12-24T02:03:23.975Z,7.10
2018-12-24T02:04:23.971Z,7.00
2018-12-24T02:05:24.008Z,7.70
2018-12-24T02:06:24.005Z,7.10
2018-12-24T02:07:24.015Z,7.30
2018-12-24T02:08:23.978Z,6.50
2018-12-24T02:09:23.998Z,6.70
2018-12-24T02:10:24.029Z,6.90
2018-12-24T02:11:24.036Z,6.50
2018-12-24T02:12:24.047Z,6.60
2018-12-24T02:13:24.022Z,6.10
2018-12-24T02:14:24.006Z,6.40
2018-12-24T02:15:24.020Z,6.20
2018-12-24T02:16:24.036Z,6.60
2018-12-24T02:17:24.081Z,7.30
2018-12-24T02:18:24.022Z,6.90
2018-12-24T02:19:24.040Z,7.50
2018-12-24T02:20:24.032Z,7.70
2018-12-24T02:21:24.033Z,7.60
2018-12-24T02:22:24.031Z,8.70
2018-12-24T02:23:24.067Z,8.80
2018-12-24T02:24:24.044Z,9.10
2018-12-24T02:25:24.053Z,9.00
2018-12-24T02:26:24.066Z,9.20
2018-12-24T02:27:24.063Z,9.80
2018-12-24T02:28:24.274Z,9.30
2018-12-24T02:29:24.062Z,9.30
2018-12-24T02:30:24.091Z,9.50
2018-12-24T02:31:24.094Z,9.10
2018-12-24T02:32:24.094Z,9.50
2018-12-24T02:33:24.124Z,9.70
2018-12-24T02:34:24.084Z,10.60
2018-12-24T02:35:24.097Z,10.20
2018-12-24T02:36:24.103Z,11.70
2018-12-24T02:37:24.120Z,11.10
2018-12-24T02:38:24.114Z,11.40
2018-12-24T02:39:24.125Z,12.80
2018-12-24T02:40:24.110Z,14.70
2018-12-24T02:41:24.112Z,15.00
2018-12-24T02:42:24.140Z,15.40
2018-12-24T02:43:24.129Z,15.50
2018-12-24T02:44:24.111Z,15.70
2018-12-24T02:45:24.118Z,15.20
2018-12-24T02:46:24.128Z,15.50
2018-12-24T02:47:24.157Z,16.50
2018-12-24T02:48:24.151Z,15.90
2018-12-24T02:49:24.137Z,15.70
2018-12-24T02:50:24.169Z,14.90
2018-12-24T02:51:24.162Z,15.90
2018-12-24T02:52:24.205Z,15.50
2018-12-24T02:53:24.168Z,13.70
2018-12-24T02:54:24.202Z,13.50
2018-12-24T02:55:24.152Z,14.90
2018-12-24T02:56:24.181Z,12.90
2018-12-24T02:57:24.162Z,12.50
2018-12-24T02:58:24.178Z,12.00
2018-12-24T02:59:24.176Z,12.60
2018-12-24T03:00:24.212Z,12.20
2018-12-24T03:01:24.186Z,12.10
2018-12-24T03:02:24.201Z,11.90
2018-12-24T03:03:24.304Z,11.80
2018-12-24T03:04:24.204Z,12.00
2018-12-24T03:05:24.211Z,12.10
2018-12-24T03:06:24.220Z,12.00
2018-12-24T03:07:24.222Z,12.60
2018-12-24T03:08:24.209Z,13.10
2018-12-24T03:09:24.319Z,13.50
2018-12-24T03:10:24.226Z,13.90
2018-12-24T03:11:24.226Z,14.00
2018-12-24T03:12:24.218Z,14.80
2018-12-24T03:13:24.347Z,15.90
2018-12-24T03:14:24.312Z,14.80
2018-12-24T03:15:24.222Z,15.00
2018-12-24T03:16:24.238Z,13.70
2018-12-24T03:17:24.238Z,14.20
2018-12-24T03:18:24.245Z,14.10
2018-12-24T03:19:24.331Z,12.70
2018-12-24T03:20:24.253Z,12.70
2018-12-24T03:21:24.290Z,12.70
2018-12-24T03:22:24.256Z,11.70
2018-12-24T03:23:24.328Z,12.90
2018-12-24T03:24:24.266Z,11.40
2018-12-24T03:25:24.275Z,10.70
2018-12-24T03:26:24.284Z,10.70
2018-12-24T03:27:24.284Z,10.40
2018-12-24T03:28:24.319Z,10.00
2018-12-24T03:29:24.300Z,9.80
2018-12-24T03:30:24.323Z,9.50
2018-12-24T03:31:24.309Z,9.00
2018-12-24T03:32:24.296Z,8.80
2018-12-24T03:33:24.294Z,8.60
2018-12-24T03:34:24.343Z,8.50
2018-12-24T03:35:24.336Z,8.50
2018-12-24T03:36:24.299Z,7.70
2018-12-24T03:37:24.428Z,7.90
2018-12-24T03:38:24.357Z,6.60
2018-12-24T03:39:24.318Z,5.40
2018-12-24T03:40:24.331Z,6.60
2018-12-24T03:41:24.324Z,6.40
2018-12-24T03:42:24.328Z,6.40
2018-12-24T03:43:24.345Z,6.20
2018-12-24T03:44:24.370Z,5.40
2018-12-24T03:45:24.356Z,6.00
2018-12-24T03:46:24.349Z,5.80
2018-12-24T03:47:24.342Z,5.80
2018-12-24T03:48:24.398Z,5.10
2018-12-24T03:49:24.351Z,5.30
2018-12-24T03:50:24.376Z,5.40
2018-12-24T03:51:24.367Z,5.20
2018-12-24T03:52:24.353Z,5.10
2018-12-24T03:53:24.367Z,4.70
2018-12-24T03:54:24.393Z,5.40
2018-12-24T03:55:24.380Z,4.60
2018-12-24T03:56:24.387Z,5.00
2018-12-24T03:57:24.392Z,5.00
2018-12-24T03:58:24.384Z,4.90
2018-12-24T03:59:24.411Z,4.90
2018-12-24T04:00:24.397Z,4.70
2018-12-24T04:01:24.398Z,5.10
2018-12-24T04:02:24.429Z,4.70
2018-12-24T04:03:24.429Z,5.10
2018-12-24T04:04:24.416Z,4.70
2018-12-24T04:05:24.432Z,4.90
2018-12-24T04:06:24.407Z,5.40
2018-12-24T04:07:24.415Z,5.30
2018-12-24T04:08:24.449Z,5.50
2018-12-24T04:09:24.417Z,5.60
2018-12-24T04:10:24.462Z,6.20
2018-12-24T04:11:24.477Z,5.20
2018-12-24T04:12:24.434Z,5.10
2018-12-24T04:13:24.443Z,5.20
2018-12-24T04:14:24.438Z,5.40
2018-12-24T04:15:24.441Z,4.90
2018-12-24T04:16:24.445Z,4.50
2018-12-24T04:17:24.504Z,5.50
2018-12-24T04:18:24.446Z,4.80
2018-12-24T04:19:24.497Z,4.00
2018-12-24T04:20:24.455Z,4.00
2018-12-24T04:21:24.491Z,4.00
2018-12-24T04:22:24.472Z,4.20
2018-12-24T04:23:24.514Z,3.80
2018-12-24T04:24:24.484Z,3.80
2018-12-24T04:25:24.485Z,3.60
2018-12-24T04:26:24.491Z,3.00
2018-12-24T04:27:24.475Z,3.50
2018-12-24T04:28:24.480Z,3.70
2018-12-24T04:29:24.513Z,3.30
2018-12-24T04:30:24.521Z,2.90
2018-12-24T04:31:24.491Z,2.70
2018-12-24T04:32:24.538Z,2.60
2018-12-24T04:33:24.511Z,2.70
2018-12-24T04:34:24.507Z,3.00
2018-12-24T04:35:24.548Z,2.70
2018-12-24T04:36:24.504Z,3.00
2018-12-24T04:37:24.516Z,3.20
2018-12-24T04:38:24.523Z,3.10
2018-12-24T04:39:24.530Z,3.20
2018-12-24T04:40:24.580Z,3.50
2018-12-24T04:41:24.525Z,3.30
2018-12-24T04:42:24.548Z,3.20
2018-12-24T04:43:32.143Z,3.30
2018-12-24T04:44:24.557Z,3.30
2018-12-24T04:45:24.568Z,3.50
2018-12-24T04:46:24.581Z,3.30
2018-12-24T04:47:24.551Z,3.50
2018-12-24T04:48:24.556Z,3.10
2018-12-24T04:49:24.584Z,3.20
2018-12-24T04:50:24.559Z,3.20
2018-12-24T04:51:24.590Z,3.30
2018-12-24T04:52:24.560Z,3.30
2018-12-24T04:53:24.598Z,3.40
2018-12-24T04:54:24.586Z,3.20
2018-12-24T04:55:24.571Z,3.40
2018-12-24T04:56:24.597Z,3.70
2018-12-24T04:57:24.578Z,3.80
2018-12-24T04:58:24.592Z,4.70
2018-12-24T04:59:24.601Z,3.60
2018-12-24T05:00:24.597Z,4.20
2018-12-24T05:01:24.636Z,4.40
2018-12-24T05:02:24.664Z,3.60
2018-12-24T05:03:24.599Z,3.50
2018-12-24T05:04:24.598Z,3.70
2018-12-24T05:05:24.603Z,3.60
2018-12-24T05:06:24.606Z,3.10
2018-12-24T05:07:24.618Z,3.20
2018-12-24T05:08:24.642Z,3.60
2018-12-24T05:09:24.614Z,3.20
2018-12-24T05:10:24.629Z,3.30
2018-12-24T05:11:24.633Z,3.20
2018-12-24T05:12:24.633Z,3.30
2018-12-24T05:13:24.653Z,3.40
2018-12-24T05:14:24.665Z,3.50
2018-12-24T05:15:24.675Z,3.60
2018-12-24T05:16:24.628Z,3.40
2018-12-24T05:17:24.635Z,3.80
2018-12-24T05:18:24.641Z,3.70
2018-12-24T05:19:24.703Z,3.60
2018-12-24T05:20:24.645Z,3.70
2018-12-24T05:21:24.654Z,3.70
2018-12-24T05:22:24.656Z,3.60
2018-12-24T05:23:24.660Z,4.00
2018-12-24T05:24:24.673Z,3.70
2018-12-24T05:25:24.695Z,3.50
2018-12-24T05:26:24.678Z,3.40
2018-12-24T05:27:24.678Z,3.60
2018-12-24T05:28:24.686Z,3.70
2018-12-24T05:29:24.691Z,3.50
2018-12-24T05:30:24.754Z,3.90
2018-12-24T05:31:24.686Z,4.20
2018-12-24T05:32:24.730Z,3.90
2018-12-24T05:33:24.717Z,3.70
2018-12-24T05:34:24.689Z,3.60
2018-12-24T05:35:24.698Z,4.00
2018-12-24T05:36:24.715Z,4.00
2018-12-24T05:37:24.729Z,4.00
2018-12-24T05:38:24.702Z,4.40
2018-12-24T05:39:24.720Z,3.80
2018-12-24T05:40:24.719Z,4.20
2018-12-24T05:41:24.747Z,4.00
2018-12-24T05:42:24.744Z,4.00
2018-12-24T05:43:24.740Z,4.00
2018-12-24T05:44:24.734Z,4.10
2018-12-24T05:45:24.729Z,4.20
2018-12-24T05:46:24.793Z,4.50
2018-12-24T05:47:24.744Z,4.40
2018-12-24T05:48:24.736Z,4.20
2018-12-24T05:49:24.737Z,4.00
2018-12-24T05:50:24.754Z,4.50
2018-12-24T05:51:24.753Z,4.50
2018-12-24T05:52:24.797Z,4.70
2018-12-24T05:53:24.764Z,4.40
2018-12-24T05:54:24.822Z,4.10
2018-12-24T05:55:24.761Z,4.80
2018-12-24T05:56:24.783Z,5.30
2018-12-24T05:57:24.797Z,4.80
2018-12-24T05:58:24.773Z,4.90
2018-12-24T05:59:24.772Z,4.00
2018-12-24T06:00:24.786Z,4.20
2018-12-24T06:01:24.771Z,3.80
2018-12-24T06:02:24.836Z,3.20
2018-12-24T06:03:24.791Z,3.40
2018-12-24T06:04:24.793Z,3.00
2018-12-24T06:05:24.796Z,3.00
2018-12-24T06:06:24.810Z,3.10
2018-12-24T06:07:24.792Z,3.50
2018-12-24T06:08:24.817Z,3.20
2018-12-24T06:09:24.826Z,3.50
2018-12-24T06:10:24.837Z,3.50
2018-12-24T06:11:24.820Z,3.60
2018-12-24T06:12:24.809Z,3.40
2018-12-24T06:13:24.824Z,3.40
2018-12-24T06:14:24.833Z,3.50
2018-12-24T06:15:24.854Z,3.10
2018-12-24T06:16:24.824Z,3.30
2018-12-24T06:17:24.832Z,4.10
2018-12-24T06:18:24.841Z,3.60
2018-12-24T06:19:24.834Z,3.30
2018-12-24T06:20:24.889Z,2.90
2018-12-24T06:21:24.848Z,2.80
2018-12-24T06:22:24.854Z,2.30
2018-12-24T06:23:24.845Z,2.90
2018-12-24T06:24:24.850Z,2.40
2018-12-24T06:25:24.850Z,2.70
2018-12-24T06:26:24.885Z,2.50
2018-12-24T06:27:24.865Z,2.70
2018-12-24T06:28:24.868Z,2.60
2018-12-24T06:29:24.869Z,2.60
2018-12-24T06:30:24.870Z,2.20
2018-12-24T06:31:24.895Z,2.40
2018-12-24T06:32:24.876Z,2.40
2018-12-24T06:33:24.882Z,2.40
2018-12-24T06:34:24.886Z,2.40
2018-12-24T06:35:24.875Z,2.40
2018-12-24T06:36:24.904Z,2.40
2018-12-24T06:37:24.892Z,2.30
2018-12-24T06:38:24.901Z,2.10
2018-12-24T06:39:24.906Z,2.10
2018-12-24T06:40:24.899Z,2.40
2018-12-24T06:41:24.954Z,2.60
2018-12-24T06:42:24.902Z,2.40
2018-12-24T06:43:24.909Z,2.20
2018-12-24T06:44:24.918Z,2.20
2018-12-24T06:45:24.908Z,2.10
2018-12-24T06:46:24.921Z,2.30
2018-12-24T06:47:24.978Z,2.10
2018-12-24T06:48:24.926Z,2.20
2018-12-24T06:49:24.938Z,2.20
2018-12-24T06:50:24.925Z,2.20
2018-12-24T06:51:24.938Z,2.30
2018-12-24T06:52:24.943Z,2.30
2018-12-24T06:53:24.958Z,2.40
2018-12-24T06:54:24.938Z,2.20
2018-12-24T06:55:24.933Z,2.30
2018-12-24T06:56:24.938Z,2.40
2018-12-24T06:57:24.940Z,2.20
2018-12-24T06:58:24.986Z,2.10
2018-12-24T06:59:24.954Z,2.00
2018-12-24T07:00:24.946Z,2.10
2018-12-24T07:01:24.947Z,2.20
2018-12-24T07:02:24.979Z,2.40
2018-12-24T07:03:24.975Z,2.10
2018-12-24T07:04:24.998Z,2.60
2018-12-24T07:05:24.965Z,2.30
2018-12-24T07:06:24.969Z,2.50
2018-12-24T07:07:24.976Z,2.50
2018-12-24T07:08:24.996Z,2.40
2018-12-24T07:09:25.000Z,2.40
2018-12-24T07:10:24.977Z,2.60
2018-12-24T07:11:24.984Z,2.10
2018-12-24T07:12:24.996Z,2.30
2018-12-24T07:13:24.992Z,2.40
2018-12-24T07:14:25.078Z,2.10
2018-12-24T07:15:24.998Z,2.50
2018-12-24T07:16:25.005Z,2.50
2018-12-24T07:17:24.998Z,2.60
2018-12-24T07:18:25.022Z,2.40
2018-12-24T07:19:25.010Z,2.10
2018-12-24T07:20:25.033Z,2.20
2018-12-24T07:21:25.011Z,2.10
2018-12-24T07:22:25.013Z,1.80
2018-12-24T07:23:25.027Z,2.10
2018-12-24T07:24:25.028Z,1.90
2018-12-24T07:25:25.057Z,2.00
2018-12-24T07:26:25.030Z,1.80
2018-12-24T07:27:25.049Z,1.80
2018-12-24T07:28:25.028Z,1.70
2018-12-24T07:29:25.030Z,2.00
2018-12-24T07:30:25.070Z,1.90
2018-12-24T07:31:25.063Z,1.80
2018-12-24T07:32:25.043Z,1.90
2018-12-24T07:33:25.046Z,1.70
2018-12-24T07:34:32.462Z,1.90
2018-12-24T07:35:25.076Z,1.60
2018-12-24T07:36:25.065Z,1.80
2018-12-24T07:37:25.060Z,1.80
2018-12-24T07:38:25.054Z,1.50
2018-12-24T07:39:25.064Z,1.30
2018-12-24T07:40:25.064Z,1.90
2018-12-24T07:41:25.059Z,1.70
2018-12-24T07:42:25.103Z,1.70
2018-12-24T07:43:25.079Z,1.40
2018-12-24T07:44:25.067Z,1.40
2018-12-24T07:45:25.076Z,1.60
2018-12-24T07:46:25.079Z,1.30
2018-12-24T07:47:25.095Z,1.40
2018-12-24T07:48:25.118Z,1.40
2018-12-24T07:49:25.086Z,1.20
2018-12-24T07:50:25.103Z,1.30
2018-12-24T07:51:25.093Z,1.30
2018-12-24T07:52:25.110Z,1.30
2018-12-24T07:53:25.089Z,1.10
2018-12-24T07:54:25.119Z,1.30
2018-12-24T07:55:25.109Z,1.10
2018-12-24T07:56:25.118Z,1.20
2018-12-24T07:57:25.135Z,1.30
2018-12-24T07:58:25.118Z,1.10
2018-12-24T07:59:25.129Z,1.20
2018-12-24T08:00:25.113Z,1.00
2018-12-24T08:01:25.114Z,1.10
2018-12-24T08:02:25.158Z,1.00
2018-12-24T08:03:25.126Z,1.40
2018-12-24T08:04:25.191Z,1.10
2018-12-24T08:05:25.135Z,1.00
2018-12-24T08:06:25.140Z,1.30
2018-12-24T08:07:25.130Z,1.30
2018-12-24T08:08:25.138Z,1.40
2018-12-24T08:09:25.166Z,1.20
2018-12-24T08:10:25.160Z,1.20
2018-12-24T08:11:25.153Z,1.30
2018-12-24T08:12:25.140Z,1.30
2018-12-24T08:13:25.155Z,1.20
2018-12-24T08:14:32.745Z,1.20
2018-12-24T08:15:25.159Z,1.00
2018-12-24T08:16:25.160Z,1.00
2018-12-24T08:17:25.166Z,0.90
2018-12-24T08:18:25.164Z,0.80
2018-12-24T08:19:25.187Z,0.90
2018-12-24T08:20:25.193Z,0.90
2018-12-24T08:21:25.181Z,0.90
2018-12-24T08:22:25.192Z,0.90
2018-12-24T08:23:25.175Z,1.00
2018-12-24T08:24:25.186Z,1.00
2018-12-24T08:25:25.214Z,1.10
2018-12-24T08:26:25.209Z,1.00
2018-12-24T08:27:25.188Z,1.10
2018-12-24T08:28:25.185Z,1.10
2018-12-24T08:29:25.198Z,1.00
2018-12-24T08:30:25.205Z,1.10
2018-12-24T08:31:25.676Z,1.30
2018-12-24T08:32:25.199Z,1.30
2018-12-24T08:33:26.547Z,1.40
2018-12-24T08:34:26.415Z,1.30
2018-12-24T08:35:25.612Z,1.60
2018-12-24T08:36:25.306Z,1.40
2018-12-24T08:37:25.350Z,1.50
2018-12-24T08:38:25.324Z,1.60
2018-12-24T08:39:25.223Z,1.60
2018-12-24T08:40:25.227Z,1.60
2018-12-24T08:41:25.224Z,1.70
2018-12-24T08:42:25.236Z,1.70
2018-12-24T08:43:25.314Z,1.70
2018-12-24T08:44:25.250Z,1.80
2018-12-24T08:45:25.251Z,2.00
2018-12-24T08:46:25.234Z,1.70
2018-12-24T08:47:25.247Z,1.80
2018-12-24T08:48:25.240Z,1.80
2018-12-24T08:49:25.276Z,1.90
2018-12-24T08:50:25.242Z,1.80
2018-12-24T08:51:25.250Z,2.00
2018-12-24T08:52:25.270Z,2.20
2018-12-24T08:53:25.284Z,1.80
2018-12-24T08:54:25.881Z,1.80
2018-12-24T08:55:25.263Z,1.90
2018-12-24T08:56:25.280Z,1.80
2018-12-24T08:57:25.263Z,2.20
2018-12-24T08:58:25.271Z,1.80
2018-12-24T08:59:25.285Z,1.90
2018-12-24T09:00:25.400Z,1.90
2018-12-24T09:01:26.124Z,2.00
2018-12-24T09:02:26.529Z,2.00
2018-12-24T09:03:25.290Z,2.00
2018-12-24T09:04:25.314Z,1.90
2018-12-24T09:05:25.313Z,1.90
2018-12-24T09:06:25.288Z,2.00
2018-12-24T09:07:26.220Z,1.70
2018-12-24T09:08:25.510Z,1.70
2018-12-24T09:09:25.334Z,1.80
2018-12-24T09:10:25.344Z,1.90
2018-12-24T09:11:25.817Z,1.90
2018-12-24T09:12:25.316Z,1.90
2018-12-24T09:13:26.773Z,2.00
2018-12-24T09:14:25.388Z,1.90
2018-12-24T09:15:25.338Z,2.10
2018-12-24T09:16:26.614Z,2.40
2018-12-24T09:17:26.124Z,2.10
2018-12-24T09:18:25.318Z,2.20
2018-12-24T09:19:25.681Z,2.40
2018-12-24T09:20:25.327Z,2.30
2018-12-24T09:21:25.388Z,2.00
2018-12-24T09:22:26.465Z,2.40
2018-12-24T09:23:25.349Z,2.50
2018-12-24T09:24:25.412Z,2.40
2018-12-24T09:25:25.388Z,2.80
2018-12-24T09:26:27.517Z,2.70
2018-12-24T09:27:25.360Z,2.30
2018-12-24T09:28:25.370Z,2.20
2018-12-24T09:29:25.373Z,2.20
2018-12-24T09:30:25.379Z,2.30
2018-12-24T09:31:25.477Z,2.20
2018-12-24T09:32:25.365Z,1.70
2018-12-24T09:33:25.356Z,2.00
2018-12-24T09:34:25.376Z,1.90
2018-12-24T09:35:25.363Z,2.10
2018-12-24T09:36:25.383Z,2.10
2018-12-24T09:37:25.637Z,2.10
2018-12-24T09:38:25.395Z,2.10
2018-12-24T09:39:25.430Z,1.90
2018-12-24T09:40:25.396Z,2.20
2018-12-24T09:41:25.376Z,2.10
2018-12-24T09:42:25.424Z,2.10
2018-12-24T09:43:25.408Z,2.10
2018-12-24T09:44:25.427Z,2.40
2018-12-24T09:45:25.421Z,2.30
2018-12-24T09:46:25.407Z,2.20
2018-12-24T09:47:25.397Z,2.30
2018-12-24T09:48:25.433Z,2.40
2018-12-24T09:49:25.448Z,2.20
2018-12-24T09:50:25.419Z,2.20
2018-12-24T09:51:25.424Z,2.10
2018-12-24T09:52:25.447Z,2.20
2018-12-24T09:53:25.831Z,2.20
2018-12-24T09:54:25.416Z,2.40
2018-12-24T09:55:28.523Z,2.10
2018-12-24T09:56:25.650Z,5.40
2018-12-24T09:57:28.015Z,3.20
2018-12-24T09:58:28.126Z,2.10
2018-12-24T09:59:25.479Z,2.30
2018-12-24T10:00:25.437Z,2.30
2018-12-24T10:01:25.467Z,2.40
2018-12-24T10:02:25.593Z,2.50
2018-12-24T10:03:25.472Z,2.40
2018-12-24T10:04:25.658Z,2.40
2018-12-24T10:05:25.512Z,2.40
2018-12-24T10:06:26.126Z,2.10
2018-12-24T10:07:25.457Z,2.00
2018-12-24T10:08:25.860Z,1.90
2018-12-24T10:09:25.510Z,2.30
2018-12-24T10:10:25.471Z,2.10
2018-12-24T10:11:25.463Z,2.40
2018-12-24T10:12:25.467Z,2.60
2018-12-24T10:13:25.475Z,2.60
2018-12-24T10:14:25.479Z,2.40
2018-12-24T10:15:25.504Z,2.10
2018-12-24T10:16:25.510Z,3.20
2018-12-24T10:17:25.478Z,2.30
2018-12-24T10:18:25.480Z,2.10
2018-12-24T10:19:26.261Z,2.20
2018-12-24T10:20:25.497Z,2.00
2018-12-24T10:21:25.527Z,2.10
2018-12-24T10:22:25.499Z,2.00
2018-12-24T10:23:26.659Z,2.00
2018-12-24T10:24:25.514Z,2.20
2018-12-24T10:25:25.515Z,2.10
2018-12-24T10:26:25.499Z,2.00
2018-12-24T10:27:25.553Z,2.20
2018-12-24T10:28:25.529Z,15.70
2018-12-24T10:29:25.541Z,10.20
2018-12-24T10:30:25.533Z,3.70
2018-12-24T10:31:25.642Z,4.60
2018-12-24T10:32:25.533Z,5.90
2018-12-24T10:33:25.578Z,2.80
2018-12-24T10:34:25.540Z,2.80
2018-12-24T10:35:25.543Z,3.30
2018-12-24T10:36:25.775Z,2.70
2018-12-24T10:37:25.705Z,2.90
2018-12-24T10:38:25.696Z,3.10
2018-12-24T10:39:25.638Z,2.80
2018-12-24T10:40:26.515Z,4.10
2018-12-24T10:41:26.515Z,3.20
2018-12-24T10:42:25.680Z,3.40
2018-12-24T10:43:25.712Z,3.20
2018-12-24T10:44:26.146Z,3.10
2018-12-24T10:45:25.602Z,2.60
2018-12-24T10:46:25.579Z,2.40
2018-12-24T10:47:26.253Z,2.70
2018-12-24T10:48:25.580Z,2.50
2018-12-24T10:49:26.648Z,2.40
2018-12-24T10:50:27.013Z,2.80
2018-12-24T10:51:26.042Z,2.60
2018-12-24T10:52:25.849Z,2.80
2018-12-24T10:53:25.790Z,2.50
2018-12-24T10:54:25.601Z,2.50
2018-12-24T10:55:25.616Z,2.30
2018-12-24T10:56:25.591Z,2.30
2018-12-24T10:57:25.651Z,2.90
2018-12-24T10:58:25.596Z,2.70
2018-12-24T10:59:25.609Z,2.30
2018-12-24T11:01:25.824Z,2.80
2018-12-24T11:02:25.622Z,2.20
2018-12-24T11:03:25.628Z,2.20
2018-12-24T11:04:25.618Z,2.60
2018-12-24T11:05:25.626Z,3.80
2018-12-24T11:06:25.675Z,3.50
2018-12-24T11:07:25.630Z,4.10
2018-12-24T11:08:25.631Z,3.30
2018-12-24T11:09:25.644Z,2.70
2018-12-24T11:10:25.642Z,3.40
2018-12-24T11:11:25.650Z,2.80
2018-12-24T11:12:25.685Z,2.60
2018-12-24T11:13:25.647Z,2.50
2018-12-24T11:14:25.653Z,2.70
2018-12-24T11:15:25.654Z,2.50
2018-12-24T11:16:25.701Z,2.40
2018-12-24T11:17:25.680Z,2.30
2018-12-24T11:18:25.684Z,2.70
2018-12-24T11:19:25.671Z,2.40
2018-12-24T11:20:25.662Z,3.10
2018-12-24T11:21:25.671Z,2.80
2018-12-24T11:22:25.682Z,2.90
2018-12-24T11:23:25.703Z,2.70
2018-12-24T11:24:25.970Z,3.10
2018-12-24T11:25:25.676Z,2.60
2018-12-24T11:26:25.699Z,3.10
2018-12-24T11:27:25.806Z,3.00
2018-12-24T11:28:25.688Z,3.10
2018-12-24T11:29:25.686Z,3.80
2018-12-24T11:30:25.682Z,4.60
2018-12-24T11:31:25.691Z,8.60
2018-12-24T11:32:25.693Z,5.00
2018-12-24T11:33:25.723Z,4.00
2018-12-24T11:34:25.728Z,3.30
2018-12-24T11:35:26.046Z,3.20
2018-12-24T11:36:25.766Z,3.20
2018-12-24T11:37:25.723Z,3.10
2018-12-24T11:38:25.760Z,3.10
2018-12-24T11:39:26.039Z,3.10
2018-12-24T11:40:25.898Z,3.20
2018-12-24T11:41:25.741Z,2.90
2018-12-24T11:42:26.090Z,3.00
2018-12-24T11:43:25.727Z,4.20
2018-12-24T11:44:25.746Z,3.90
2018-12-24T11:45:33.590Z,3.50
2018-12-24T11:46:25.735Z,4.60
2018-12-24T11:47:26.290Z,3.20
2018-12-24T11:48:25.765Z,3.50
2018-12-24T11:49:26.193Z,3.40
2018-12-24T11:50:25.738Z,3.40
2018-12-24T11:51:26.179Z,4.50
2018-12-24T11:52:25.850Z,3.90
2018-12-24T11:53:25.752Z,4.30
2018-12-24T11:54:26.161Z,3.90
2018-12-24T11:55:25.765Z,3.90
2018-12-24T11:56:25.763Z,3.10
2018-12-24T11:57:25.765Z,3.00
2018-12-24T11:58:25.762Z,2.80
2018-12-24T11:59:25.771Z,3.90
2018-12-24T12:00:25.794Z,3.50
2018-12-24T12:01:25.789Z,3.50
2018-12-24T12:02:25.850Z,4.30
2018-12-24T12:03:26.607Z,3.80
2018-12-24T12:04:25.848Z,5.00
2018-12-24T12:05:26.603Z,3.60
2018-12-24T12:06:25.951Z,3.30
2018-12-24T12:07:26.818Z,3.10
2018-12-24T12:08:26.067Z,3.40
2018-12-24T12:09:25.800Z,2.70
2018-12-24T12:10:27.015Z,2.80
2018-12-24T12:11:25.811Z,2.80
2018-12-24T12:12:25.804Z,2.60
2018-12-24T12:13:25.850Z,2.80
2018-12-24T12:14:25.817Z,2.80
2018-12-24T12:15:25.822Z,3.00
2018-12-24T12:16:25.842Z,3.30
2018-12-24T12:17:25.832Z,3.00
2018-12-24T12:18:25.827Z,3.00
2018-12-24T12:19:25.853Z,3.10
2018-12-24T12:20:25.859Z,3.00
2018-12-24T12:21:25.820Z,3.60
2018-12-24T12:22:25.921Z,3.30
2018-12-24T12:23:25.829Z,2.90
2018-12-24T12:24:25.833Z,3.10
2018-12-24T12:25:25.844Z,2.60
2018-12-24T12:26:25.847Z,2.90
2018-12-24T12:27:25.854Z,3.10
2018-12-24T12:28:25.862Z,3.20
2018-12-24T12:29:25.961Z,3.00
2018-12-24T12:30:25.991Z,3.20
2018-12-24T12:31:25.875Z,3.30
2018-12-24T12:32:25.883Z,2.80
2018-12-24T12:33:25.864Z,2.90
2018-12-24T12:34:25.902Z,2.90
2018-12-24T12:35:25.892Z,2.60
2018-12-24T12:36:25.884Z,2.80
2018-12-24T12:37:25.881Z,2.90
2018-12-24T12:38:29.742Z,2.90
2018-12-24T12:39:25.888Z,2.90
2018-12-24T12:40:25.906Z,3.10
2018-12-24T12:41:25.878Z,3.30
2018-12-24T12:42:25.891Z,3.40
2018-12-24T12:43:25.907Z,2.80
2018-12-24T12:44:25.907Z,2.80
2018-12-24T12:45:25.931Z,2.50
2018-12-24T12:46:25.932Z,3.00
2018-12-24T12:47:25.946Z,3.00
2018-12-24T12:48:25.981Z,2.70
2018-12-24T12:49:26.066Z,2.70
2018-12-24T12:50:25.915Z,2.70
2018-12-24T12:51:25.943Z,2.80
2018-12-24T12:52:25.936Z,3.40
2018-12-24T12:53:26.052Z,3.60
2018-12-24T12:54:26.512Z,2.80
2018-12-24T12:55:25.934Z,2.90
2018-12-24T12:56:25.948Z,3.10
2018-12-24T12:57:25.962Z,2.90
2018-12-24T12:58:25.988Z,2.90
2018-12-24T12:59:25.944Z,3.10
2018-12-24T13:00:25.937Z,3.20
2018-12-24T13:01:25.956Z,2.50
2018-12-24T13:02:26.341Z,2.60
2018-12-24T13:03:25.960Z,2.70
2018-12-24T13:04:25.979Z,2.60
2018-12-24T13:05:25.974Z,2.90
2018-12-24T13:06:25.964Z,2.60
2018-12-24T13:07:25.980Z,2.80
2018-12-24T13:08:25.971Z,2.70
2018-12-24T13:09:26.020Z,2.70
2018-12-24T13:10:25.998Z,2.60
2018-12-24T13:11:25.989Z,2.90
2018-12-24T13:12:25.978Z,2.90
2018-12-24T13:13:25.972Z,2.80
2018-12-24T13:14:25.978Z,3.10
2018-12-24T13:15:26.062Z,2.80
2018-12-24T13:16:26.001Z,2.90
2018-12-24T13:17:25.985Z,2.80